sensor_id;sensor_type;location;lat;lon;timestamp;P1;durP1;ratioP1;P2;durP2;ratioP2
29184;SDS011;16233;47.964;-3.842;2022-10-17T00:01:09;19.52;;;3.47;;
29184;SDS011;16233;47.964;-3.842;2022-10-17T00:03:11;15.85;;;3.33;;
29184;SDS011;16233;47.964;-3.842;2022-10-17T00:05:12;27.70;;;3.97;;
29184;SDS011;16233;47.964;-3.842;2022-10-17T00:07:13;16.55;;;2.50;;
29184;SDS011;16233;47.964;-3.842;2022-10-17T00:09:14;17.05;;;2.30;;
29184;SDS011;16233;47.964;-3.842;2022-10-17T00:11:16;17.95;;;3.33;;
29184;SDS011;16233;47.964;-3.842;2022-10-17T00:13:18;15.40;;;2.78;;
29184;SDS011;16233;47.964;-3.842;2022-10-17T00:15:21;19.98;;;3.40;;
29184;SDS011;16233;47.964;-3.842;2022-10-17T00:17:22;27.33;;;4.13;;
29184;SDS011;16233;47.964;-3.842;2022-10-17T00:19:23;12.63;;;3.00;;
29184;SDS011;16233;47.964;-3.842;2022-10-17T00:21:25;21.20;;;2.70;;
29184;SDS011;16233;47.964;-3.842;2022-10-17T00:23:26;18.05;;;3.90;;
29184;SDS011;16233;47.964;-3.842;2022-10-17T00:25:27;20.25;;;3.92;;
29184;SDS011;16233;47.964;-3.842;2022-10-17T00:27:28;19.98;;;3.17;;
29184;SDS011;16233;47.964;-3.842;2022-10-17T00:29:29;23.00;;;4.05;;
29184;SDS011;16233;47.964;-3.842;2022-10-17T00:31:31;17.83;;;2.55;;
29184;SDS011;16233;47.964;-3.842;2022-10-17T00:33:33;20.98;;;2.72;;
29184;SDS011;16233;47.964;-3.842;2022-10-17T00:35:34;20.73;;;2.63;;
29184;SDS011;16233;47.964;-3.842;2022-10-17T00:37:35;23.30;;;3.25;;
29184;SDS011;16233;47.964;-3.842;2022-10-17T00:39:36;15.93;;;3.33;;
29184;SDS011;16233;47.964;-3.842;2022-10-17T00:41:38;21.98;;;3.03;;
29184;SDS011;16233;47.964;-3.842;2022-10-17T00:43:49;20.00;;;4.22;;
29184;SDS011;16233;47.964;-3.842;2022-10-17T00:45:51;25.92;;;3.50;;
29184;SDS011;16233;47.964;-3.842;2022-10-17T00:47:55;23.80;;;2.67;;
29184;SDS011;16233;47.964;-3.842;2022-10-17T00:49:59;16.38;;;2.50;;
29184;SDS011;16233;47.964;-3.842;2022-10-17T00:52:01;19.65;;;3.58;;
29184;SDS011;16233;47.964;-3.842;2022-10-17T00:54:05;19.13;;;2.85;;
29184;SDS011;16233;47.964;-3.842;2022-10-17T00:56:06;21.23;;;2.97;;
29184;SDS011;16233;47.964;-3.842;2022-10-17T00:58:08;20.60;;;3.17;;
29184;SDS011;16233;47.964;-3.842;2022-10-17T01:00:09;18.88;;;3.15;;
29184;SDS011;16233;47.964;-3.842;2022-10-17T01:02:12;18.38;;;3.10;;
29184;SDS011;16233;47.964;-3.842;2022-10-17T01:04:16;16.13;;;2.95;;
29184;SDS011;16233;47.964;-3.842;2022-10-17T01:06:18;17.00;;;2.58;;
29184;SDS011;16233;47.964;-3.842;2022-10-17T01:08:19;21.25;;;3.95;;
29184;SDS011;16233;47.964;-3.842;2022-10-17T01:10:20;9.02;;;4.00;;
29184;SDS011;16233;47.964;-3.842;2022-10-17T01:12:27;15.32;;;3.00;;
29184;SDS011;16233;47.964;-3.842;2022-10-17T01:14:39;16.25;;;2.80;;
29184;SDS011;16233;47.964;-3.842;2022-10-17T01:16:50;18.35;;;3.10;;
29184;SDS011;16233;47.964;-3.842;2022-10-17T01:19:02;14.65;;;2.83;;
29184;SDS011;16233;47.964;-3.842;2022-10-17T01:21:26;17.15;;;2.28;;
29184;SDS011;16233;47.964;-3.842;2022-10-17T01:23:41;21.10;;;2.95;;
29184;SDS011;16233;47.964;-3.842;2022-10-17T01:26:11;23.27;;;3.90;;
29184;SDS011;16233;47.964;-3.842;2022-10-17T01:28:22;17.65;;;3.00;;
29184;SDS011;16233;47.964;-3.842;2022-10-17T01:30:54;19.73;;;3.03;;
29184;SDS011;16233;47.964;-3.842;2022-10-17T01:33:01;18.35;;;2.80;;
29184;SDS011;16233;47.964;-3.842;2022-10-17T01:35:08;15.90;;;2.80;;
29184;SDS011;16233;47.964;-3.842;2022-10-17T01:37:13;32.50;;;4.63;;
29184;SDS011;16233;47.964;-3.842;2022-10-17T01:39:21;26.45;;;3.30;;
29184;SDS011;16233;47.964;-3.842;2022-10-17T01:41:33;27.52;;;4.05;;
29184;SDS011;16233;47.964;-3.842;2022-10-17T01:43:38;27.58;;;3.88;;
29184;SDS011;16233;47.964;-3.842;2022-10-17T01:45:47;12.60;;;2.55;;
29184;SDS011;16233;47.964;-3.842;2022-10-17T01:47:53;23.80;;;3.42;;
29184;SDS011;16233;47.964;-3.842;2022-10-17T01:49:59;14.93;;;3.28;;
29184;SDS011;16233;47.964;-3.842;2022-10-17T01:52:05;18.75;;;2.42;;
29184;SDS011;16233;47.964;-3.842;2022-10-17T01:54:10;13.50;;;2.60;;
29184;SDS011;16233;47.964;-3.842;2022-10-17T01:56:13;14.48;;;2.85;;
29184;SDS011;16233;47.964;-3.842;2022-10-17T01:58:19;24.83;;;2.92;;
29184;SDS011;16233;47.964;-3.842;2022-10-17T02:00:24;19.63;;;3.53;;
29184;SDS011;16233;47.964;-3.842;2022-10-17T02:02:28;22.52;;;3.35;;
29184;SDS011;16233;47.964;-3.842;2022-10-17T02:04:33;15.43;;;2.80;;
29184;SDS011;16233;47.964;-3.842;2022-10-17T02:06:34;15.98;;;3.15;;
29184;SDS011;16233;47.964;-3.842;2022-10-17T02:08:39;15.25;;;3.00;;
29184;SDS011;16233;47.964;-3.842;2022-10-17T02:10:43;19.38;;;3.55;;
29184;SDS011;16233;47.964;-3.842;2022-10-17T02:12:53;14.80;;;3.05;;
29184;SDS011;16233;47.964;-3.842;2022-10-17T02:15:04;12.15;;;2.40;;
29184;SDS011;16233;47.964;-3.842;2022-10-17T02:17:18;16.23;;;2.58;;
29184;SDS011;16233;47.964;-3.842;2022-10-17T02:19:33;13.30;;;2.80;;
29184;SDS011;16233;47.964;-3.842;2022-10-17T02:21:41;9.20;;;2.35;;
29184;SDS011;16233;47.964;-3.842;2022-10-17T02:23:50;16.48;;;2.95;;
29184;SDS011;16233;47.964;-3.842;2022-10-17T02:25:57;20.58;;;2.78;;
29184;SDS011;16233;47.964;-3.842;2022-10-17T02:28:08;16.92;;;2.80;;
29184;SDS011;16233;47.964;-3.842;2022-10-17T02:30:19;17.05;;;2.83;;
29184;SDS011;16233;47.964;-3.842;2022-10-17T02:32:31;13.23;;;2.35;;
29184;SDS011;16233;47.964;-3.842;2022-10-17T02:34:36;14.93;;;2.42;;
29184;SDS011;16233;47.964;-3.842;2022-10-17T02:36:41;18.35;;;3.25;;
29184;SDS011;16233;47.964;-3.842;2022-10-17T02:38:45;15.13;;;2.55;;
29184;SDS011;16233;47.964;-3.842;2022-10-17T02:40:48;18.83;;;2.30;;
29184;SDS011;16233;47.964;-3.842;2022-10-17T02:42:50;17.50;;;2.80;;
29184;SDS011;16233;47.964;-3.842;2022-10-17T02:44:53;14.73;;;2.33;;
29184;SDS011;16233;47.964;-3.842;2022-10-17T02:46:58;24.20;;;2.78;;
29184;SDS011;16233;47.964;-3.842;2022-10-17T02:49:06;27.92;;;4.32;;
29184;SDS011;16233;47.964;-3.842;2022-10-17T02:51:17;22.17;;;3.17;;
29184;SDS011;16233;47.964;-3.842;2022-10-17T02:53:29;15.45;;;2.55;;
29184;SDS011;16233;47.964;-3.842;2022-10-17T02:55:38;15.98;;;2.58;;
29184;SDS011;16233;47.964;-3.842;2022-10-17T02:57:43;12.27;;;2.70;;
29184;SDS011;16233;47.964;-3.842;2022-10-17T02:59:48;14.13;;;2.70;;
29184;SDS011;16233;47.964;-3.842;2022-10-17T03:01:50;10.10;;;2.60;;
29184;SDS011;16233;47.964;-3.842;2022-10-17T03:03:56;16.58;;;2.72;;
29184;SDS011;16233;47.964;-3.842;2022-10-17T03:06:04;13.90;;;2.42;;
29184;SDS011;16233;47.964;-3.842;2022-10-17T03:08:07;8.85;;;2.40;;
29184;SDS011;16233;47.964;-3.842;2022-10-17T03:10:08;7.35;;;2.00;;
29184;SDS011;16233;47.964;-3.842;2022-10-17T03:12:09;11.43;;;2.40;;
29184;SDS011;16233;47.964;-3.842;2022-10-17T03:14:10;20.60;;;3.30;;
29184;SDS011;16233;47.964;-3.842;2022-10-17T03:16:11;10.55;;;1.98;;
29184;SDS011;16233;47.964;-3.842;2022-10-17T03:18:12;18.67;;;2.72;;
29184;SDS011;16233;47.964;-3.842;2022-10-17T03:20:13;17.17;;;2.15;;
29184;SDS011;16233;47.964;-3.842;2022-10-17T03:22:14;21.20;;;3.47;;
29184;SDS011;16233;47.964;-3.842;2022-10-17T03:24:16;8.32;;;1.70;;
29184;SDS011;16233;47.964;-3.842;2022-10-17T03:26:17;16.98;;;2.58;;
29184;SDS011;16233;47.964;-3.842;2022-10-17T03:28:18;14.00;;;3.22;;
29184;SDS011;16233;47.964;-3.842;2022-10-17T03:30:19;19.02;;;2.83;;
29184;SDS011;16233;47.964;-3.842;2022-10-17T03:32:20;7.32;;;2.05;;
29184;SDS011;16233;47.964;-3.842;2022-10-17T03:34:21;12.05;;;2.15;;
29184;SDS011;16233;47.964;-3.842;2022-10-17T03:36:22;12.57;;;2.47;;
29184;SDS011;16233;47.964;-3.842;2022-10-17T03:38:23;16.95;;;2.10;;
29184;SDS011;16233;47.964;-3.842;2022-10-17T03:40:26;12.23;;;2.20;;
29184;SDS011;16233;47.964;-3.842;2022-10-17T03:42:27;10.93;;;1.80;;
29184;SDS011;16233;47.964;-3.842;2022-10-17T03:44:28;13.32;;;2.08;;
29184;SDS011;16233;47.964;-3.842;2022-10-17T03:46:29;11.10;;;1.75;;
29184;SDS011;16233;47.964;-3.842;2022-10-17T03:48:30;10.25;;;2.35;;
29184;SDS011;16233;47.964;-3.842;2022-10-17T03:50:31;14.55;;;2.53;;
29184;SDS011;16233;47.964;-3.842;2022-10-17T03:52:32;11.90;;;2.28;;
29184;SDS011;16233;47.964;-3.842;2022-10-17T03:54:33;14.23;;;1.92;;
29184;SDS011;16233;47.964;-3.842;2022-10-17T03:56:35;14.00;;;2.05;;
29184;SDS011;16233;47.964;-3.842;2022-10-17T03:58:36;7.03;;;2.10;;
29184;SDS011;16233;47.964;-3.842;2022-10-17T04:00:37;17.40;;;2.08;;
29184;SDS011;16233;47.964;-3.842;2022-10-17T04:02:38;10.55;;;2.20;;
29184;SDS011;16233;47.964;-3.842;2022-10-17T04:04:39;10.93;;;3.25;;
29184;SDS011;16233;47.964;-3.842;2022-10-17T04:06:40;9.70;;;1.48;;
29184;SDS011;16233;47.964;-3.842;2022-10-17T04:08:41;15.68;;;2.05;;
29184;SDS011;16233;47.964;-3.842;2022-10-17T04:10:42;17.05;;;2.15;;
29184;SDS011;16233;47.964;-3.842;2022-10-17T04:12:44;15.75;;;1.80;;
29184;SDS011;16233;47.964;-3.842;2022-10-17T04:14:45;11.73;;;1.73;;
29184;SDS011;16233;47.964;-3.842;2022-10-17T04:16:46;10.15;;;2.10;;
29184;SDS011;16233;47.964;-3.842;2022-10-17T04:18:51;10.27;;;1.73;;
29184;SDS011;16233;47.964;-3.842;2022-10-17T04:20:52;10.18;;;1.85;;
29184;SDS011;16233;47.964;-3.842;2022-10-17T04:22:53;13.60;;;1.75;;
29184;SDS011;16233;47.964;-3.842;2022-10-17T04:24:54;9.57;;;1.42;;
29184;SDS011;16233;47.964;-3.842;2022-10-17T04:26:55;9.40;;;2.25;;
29184;SDS011;16233;47.964;-3.842;2022-10-17T04:28:58;8.30;;;1.73;;
29184;SDS011;16233;47.964;-3.842;2022-10-17T04:30:59;13.32;;;1.80;;
29184;SDS011;16233;47.964;-3.842;2022-10-17T04:33:02;13.70;;;1.80;;
29184;SDS011;16233;47.964;-3.842;2022-10-17T04:35:03;10.10;;;1.70;;
29184;SDS011;16233;47.964;-3.842;2022-10-17T04:37:05;6.25;;;1.45;;
29184;SDS011;16233;47.964;-3.842;2022-10-17T04:39:06;12.55;;;1.80;;
29184;SDS011;16233;47.964;-3.842;2022-10-17T04:41:10;12.90;;;2.67;;
29184;SDS011;16233;47.964;-3.842;2022-10-17T04:43:19;9.02;;;1.73;;
29184;SDS011;16233;47.964;-3.842;2022-10-17T04:45:22;8.27;;;1.90;;
29184;SDS011;16233;47.964;-3.842;2022-10-17T04:47:23;7.45;;;2.00;;
29184;SDS011;16233;47.964;-3.842;2022-10-17T04:49:24;5.55;;;1.60;;
29184;SDS011;16233;47.964;-3.842;2022-10-17T04:51:25;12.57;;;2.10;;
29184;SDS011;16233;47.964;-3.842;2022-10-17T04:53:26;10.93;;;1.88;;
29184;SDS011;16233;47.964;-3.842;2022-10-17T04:55:29;11.80;;;2.00;;
29184;SDS011;16233;47.964;-3.842;2022-10-17T04:57:32;9.35;;;1.90;;
29184;SDS011;16233;47.964;-3.842;2022-10-17T04:59:34;5.15;;;1.63;;
29184;SDS011;16233;47.964;-3.842;2022-10-17T05:01:36;10.15;;;2.40;;
29184;SDS011;16233;47.964;-3.842;2022-10-17T05:03:37;7.93;;;1.67;;
29184;SDS011;16233;47.964;-3.842;2022-10-17T05:05:38;10.60;;;2.30;;
29184;SDS011;16233;47.964;-3.842;2022-10-17T05:07:40;15.05;;;2.88;;
29184;SDS011;16233;47.964;-3.842;2022-10-17T05:09:41;11.10;;;2.63;;
29184;SDS011;16233;47.964;-3.842;2022-10-17T05:11:42;10.10;;;1.67;;
29184;SDS011;16233;47.964;-3.842;2022-10-17T05:13:43;16.52;;;2.28;;
29184;SDS011;16233;47.964;-3.842;2022-10-17T05:15:48;6.32;;;1.73;;
29184;SDS011;16233;47.964;-3.842;2022-10-17T05:17:54;14.55;;;2.22;;
29184;SDS011;16233;47.964;-3.842;2022-10-17T05:19:55;5.65;;;1.70;;
29184;SDS011;16233;47.964;-3.842;2022-10-17T05:21:56;4.63;;;1.90;;
29184;SDS011;16233;47.964;-3.842;2022-10-17T05:23:57;9.32;;;1.70;;
29184;SDS011;16233;47.964;-3.842;2022-10-17T05:25:58;11.27;;;1.98;;
29184;SDS011;16233;47.964;-3.842;2022-10-17T05:28:00;6.85;;;1.70;;
29184;SDS011;16233;47.964;-3.842;2022-10-17T05:30:01;8.57;;;1.98;;
29184;SDS011;16233;47.964;-3.842;2022-10-17T05:32:03;7.05;;;1.75;;
29184;SDS011;16233;47.964;-3.842;2022-10-17T05:34:05;4.63;;;1.58;;
29184;SDS011;16233;47.964;-3.842;2022-10-17T05:36:07;12.15;;;2.22;;
29184;SDS011;16233;47.964;-3.842;2022-10-17T05:38:08;8.93;;;2.13;;
29184;SDS011;16233;47.964;-3.842;2022-10-17T05:40:09;9.32;;;2.15;;
29184;SDS011;16233;47.964;-3.842;2022-10-17T05:42:10;9.25;;;1.92;;
29184;SDS011;16233;47.964;-3.842;2022-10-17T05:44:11;6.65;;;1.98;;
29184;SDS011;16233;47.964;-3.842;2022-10-17T05:46:12;7.28;;;2.05;;
29184;SDS011;16233;47.964;-3.842;2022-10-17T05:48:13;4.07;;;1.48;;
29184;SDS011;16233;47.964;-3.842;2022-10-17T05:50:16;2.67;;;1.38;;
29184;SDS011;16233;47.964;-3.842;2022-10-17T05:52:17;6.60;;;1.45;;
29184;SDS011;16233;47.964;-3.842;2022-10-17T05:54:18;5.38;;;1.20;;
29184;SDS011;16233;47.964;-3.842;2022-10-17T05:56:19;4.53;;;1.40;;
29184;SDS011;16233;47.964;-3.842;2022-10-17T05:58:20;6.60;;;1.30;;
29184;SDS011;16233;47.964;-3.842;2022-10-17T06:00:21;5.90;;;1.63;;
29184;SDS011;16233;47.964;-3.842;2022-10-17T06:02:22;2.75;;;1.05;;
29184;SDS011;16233;47.964;-3.842;2022-10-17T06:04:23;4.78;;;1.23;;
29184;SDS011;16233;47.964;-3.842;2022-10-17T06:06:25;6.22;;;1.23;;
29184;SDS011;16233;47.964;-3.842;2022-10-17T06:08:26;3.97;;;1.35;;
29184;SDS011;16233;47.964;-3.842;2022-10-17T06:10:27;8.07;;;1.30;;
29184;SDS011;16233;47.964;-3.842;2022-10-17T06:12:28;4.85;;;1.35;;
29184;SDS011;16233;47.964;-3.842;2022-10-17T06:14:29;3.95;;;1.00;;
29184;SDS011;16233;47.964;-3.842;2022-10-17T06:16:30;11.23;;;1.58;;
29184;SDS011;16233;47.964;-3.842;2022-10-17T06:18:31;4.93;;;1.42;;
29184;SDS011;16233;47.964;-3.842;2022-10-17T06:20:32;4.30;;;1.50;;
29184;SDS011;16233;47.964;-3.842;2022-10-17T06:22:34;6.82;;;1.40;;
29184;SDS011;16233;47.964;-3.842;2022-10-17T06:24:35;7.97;;;1.42;;
29184;SDS011;16233;47.964;-3.842;2022-10-17T06:26:36;7.72;;;1.52;;
29184;SDS011;16233;47.964;-3.842;2022-10-17T06:28:37;7.80;;;1.60;;
29184;SDS011;16233;47.964;-3.842;2022-10-17T06:30:39;4.93;;;1.38;;
29184;SDS011;16233;47.964;-3.842;2022-10-17T06:32:40;7.00;;;1.38;;
29184;SDS011;16233;47.964;-3.842;2022-10-17T06:34:41;5.38;;;1.55;;
29184;SDS011;16233;47.964;-3.842;2022-10-17T06:36:42;6.80;;;1.80;;
29184;SDS011;16233;47.964;-3.842;2022-10-17T06:38:44;5.72;;;2.13;;
29184;SDS011;16233;47.964;-3.842;2022-10-17T06:40:45;6.35;;;2.05;;
29184;SDS011;16233;47.964;-3.842;2022-10-17T06:42:46;10.75;;;1.90;;
29184;SDS011;16233;47.964;-3.842;2022-10-17T06:44:47;8.38;;;1.70;;
29184;SDS011;16233;47.964;-3.842;2022-10-17T06:46:48;8.18;;;1.65;;
29184;SDS011;16233;47.964;-3.842;2022-10-17T06:48:49;9.55;;;1.70;;
29184;SDS011;16233;47.964;-3.842;2022-10-17T06:50:50;5.53;;;1.50;;
29184;SDS011;16233;47.964;-3.842;2022-10-17T06:52:51;8.93;;;1.40;;
29184;SDS011;16233;47.964;-3.842;2022-10-17T06:54:53;3.35;;;1.23;;
29184;SDS011;16233;47.964;-3.842;2022-10-17T06:56:54;6.65;;;2.15;;
29184;SDS011;16233;47.964;-3.842;2022-10-17T06:58:55;5.32;;;1.52;;
29184;SDS011;16233;47.964;-3.842;2022-10-17T07:00:59;4.13;;;1.17;;
29184;SDS011;16233;47.964;-3.842;2022-10-17T07:03:01;3.47;;;1.80;;
29184;SDS011;16233;47.964;-3.842;2022-10-17T07:05:02;16.63;;;1.80;;
29184;SDS011;16233;47.964;-3.842;2022-10-17T07:07:04;7.05;;;1.52;;
29184;SDS011;16233;47.964;-3.842;2022-10-17T07:09:05;8.55;;;1.70;;
29184;SDS011;16233;47.964;-3.842;2022-10-17T07:11:10;4.65;;;1.42;;
29184;SDS011;16233;47.964;-3.842;2022-10-17T07:13:12;7.97;;;1.60;;
29184;SDS011;16233;47.964;-3.842;2022-10-17T07:15:14;3.80;;;1.40;;
29184;SDS011;16233;47.964;-3.842;2022-10-17T07:17:15;2.25;;;1.30;;
29184;SDS011;16233;47.964;-3.842;2022-10-17T07:19:16;2.17;;;1.33;;
29184;SDS011;16233;47.964;-3.842;2022-10-17T07:21:17;6.60;;;1.30;;
29184;SDS011;16233;47.964;-3.842;2022-10-17T07:23:18;6.07;;;1.58;;
29184;SDS011;16233;47.964;-3.842;2022-10-17T07:25:19;8.85;;;1.40;;
29184;SDS011;16233;47.964;-3.842;2022-10-17T07:27:23;6.20;;;1.40;;
29184;SDS011;16233;47.964;-3.842;2022-10-17T07:29:24;9.77;;;2.13;;
29184;SDS011;16233;47.964;-3.842;2022-10-17T07:31:25;17.50;;;1.95;;
29184;SDS011;16233;47.964;-3.842;2022-10-17T07:33:26;11.60;;;2.08;;
29184;SDS011;16233;47.964;-3.842;2022-10-17T07:35:27;7.47;;;1.75;;
29184;SDS011;16233;47.964;-3.842;2022-10-17T07:37:28;14.60;;;2.03;;
29184;SDS011;16233;47.964;-3.842;2022-10-17T07:39:29;8.43;;;1.55;;
29184;SDS011;16233;47.964;-3.842;2022-10-17T07:41:30;9.15;;;1.70;;
29184;SDS011;16233;47.964;-3.842;2022-10-17T07:43:32;8.23;;;1.45;;
29184;SDS011;16233;47.964;-3.842;2022-10-17T07:45:34;6.40;;;1.40;;
29184;SDS011;16233;47.964;-3.842;2022-10-17T07:47:35;11.02;;;1.50;;
29184;SDS011;16233;47.964;-3.842;2022-10-17T07:49:36;13.25;;;1.80;;
29184;SDS011;16233;47.964;-3.842;2022-10-17T07:51:37;8.80;;;1.35;;
29184;SDS011;16233;47.964;-3.842;2022-10-17T07:53:38;8.40;;;1.38;;
29184;SDS011;16233;47.964;-3.842;2022-10-17T07:55:40;9.45;;;1.67;;
29184;SDS011;16233;47.964;-3.842;2022-10-17T07:57:41;5.10;;;1.20;;
29184;SDS011;16233;47.964;-3.842;2022-10-17T07:59:43;6.88;;;1.50;;
29184;SDS011;16233;47.964;-3.842;2022-10-17T08:01:44;3.38;;;1.23;;
29184;SDS011;16233;47.964;-3.842;2022-10-17T08:03:46;8.73;;;1.33;;
29184;SDS011;16233;47.964;-3.842;2022-10-17T08:05:47;6.43;;;1.63;;
29184;SDS011;16233;47.964;-3.842;2022-10-17T08:07:48;5.60;;;1.38;;
29184;SDS011;16233;47.964;-3.842;2022-10-17T08:09:49;9.35;;;2.00;;
29184;SDS011;16233;47.964;-3.842;2022-10-17T08:11:50;17.13;;;2.90;;
29184;SDS011;16233;47.964;-3.842;2022-10-17T08:13:51;5.03;;;1.60;;
29184;SDS011;16233;47.964;-3.842;2022-10-17T08:15:53;7.30;;;1.50;;
29184;SDS011;16233;47.964;-3.842;2022-10-17T08:17:58;8.63;;;1.50;;
29184;SDS011;16233;47.964;-3.842;2022-10-17T08:19:59;5.97;;;1.65;;
29184;SDS011;16233;47.964;-3.842;2022-10-17T08:22:00;4.97;;;2.38;;
29184;SDS011;16233;47.964;-3.842;2022-10-17T08:24:01;4.07;;;1.60;;
29184;SDS011;16233;47.964;-3.842;2022-10-17T08:26:03;5.72;;;1.90;;
29184;SDS011;16233;47.964;-3.842;2022-10-17T08:28:05;6.22;;;1.77;;
29184;SDS011;16233;47.964;-3.842;2022-10-17T08:30:07;6.15;;;1.73;;
29184;SDS011;16233;47.964;-3.842;2022-10-17T08:32:10;7.70;;;1.50;;
29184;SDS011;16233;47.964;-3.842;2022-10-17T08:34:11;2.38;;;1.90;;
29184;SDS011;16233;47.964;-3.842;2022-10-17T08:36:12;3.95;;;2.08;;
29184;SDS011;16233;47.964;-3.842;2022-10-17T08:38:14;5.93;;;2.08;;
29184;SDS011;16233;47.964;-3.842;2022-10-17T08:40:16;6.20;;;3.33;;
29184;SDS011;16233;47.964;-3.842;2022-10-17T08:42:26;4.50;;;1.65;;
29184;SDS011;16233;47.964;-3.842;2022-10-17T08:44:38;3.35;;;2.00;;
29184;SDS011;16233;47.964;-3.842;2022-10-17T08:46:50;5.13;;;1.67;;
29184;SDS011;16233;47.964;-3.842;2022-10-17T08:48:55;5.80;;;2.03;;
29184;SDS011;16233;47.964;-3.842;2022-10-17T08:51:00;2.92;;;1.92;;
29184;SDS011;16233;47.964;-3.842;2022-10-17T08:53:05;4.53;;;1.63;;
29184;SDS011;16233;47.964;-3.842;2022-10-17T08:55:13;6.68;;;1.75;;
29184;SDS011;16233;47.964;-3.842;2022-10-17T08:57:17;5.90;;;1.75;;
29184;SDS011;16233;47.964;-3.842;2022-10-17T08:59:19;7.22;;;1.90;;
29184;SDS011;16233;47.964;-3.842;2022-10-17T09:01:28;4.28;;;1.40;;
29184;SDS011;16233;47.964;-3.842;2022-10-17T09:03:37;5.40;;;1.83;;
29184;SDS011;16233;47.964;-3.842;2022-10-17T09:05:51;5.65;;;1.60;;
29184;SDS011;16233;47.964;-3.842;2022-10-17T09:07:58;5.47;;;1.38;;
29184;SDS011;16233;47.964;-3.842;2022-10-17T09:12:11;4.25;;;1.50;;
29184;SDS011;16233;47.964;-3.842;2022-10-17T09:14:19;3.83;;;1.60;;
29184;SDS011;16233;47.964;-3.842;2022-10-17T09:16:39;5.07;;;1.48;;
29184;SDS011;16233;47.964;-3.842;2022-10-17T09:18:57;6.00;;;1.10;;
29184;SDS011;16233;47.964;-3.842;2022-10-17T09:21:07;3.67;;;1.20;;
29184;SDS011;16233;47.964;-3.842;2022-10-17T09:23:17;2.92;;;1.40;;
29184;SDS011;16233;47.964;-3.842;2022-10-17T09:25:21;3.60;;;1.02;;
29184;SDS011;16233;47.964;-3.842;2022-10-17T09:27:23;4.28;;;1.90;;
29184;SDS011;16233;47.964;-3.842;2022-10-17T09:29:28;1.63;;;1.20;;
29184;SDS011;16233;47.964;-3.842;2022-10-17T09:31:29;5.90;;;1.60;;
29184;SDS011;16233;47.964;-3.842;2022-10-17T09:33:35;2.83;;;1.17;;
29184;SDS011;16233;47.964;-3.842;2022-10-17T09:35:38;4.38;;;1.10;;
29184;SDS011;16233;47.964;-3.842;2022-10-17T09:37:41;6.90;;;1.33;;
29184;SDS011;16233;47.964;-3.842;2022-10-17T09:39:43;10.02;;;1.50;;
29184;SDS011;16233;47.964;-3.842;2022-10-17T09:41:47;9.05;;;1.40;;
29184;SDS011;16233;47.964;-3.842;2022-10-17T09:43:51;6.03;;;1.48;;
29184;SDS011;16233;47.964;-3.842;2022-10-17T09:45:58;7.18;;;1.75;;
29184;SDS011;16233;47.964;-3.842;2022-10-17T09:48:06;6.90;;;1.52;;
29184;SDS011;16233;47.964;-3.842;2022-10-17T09:50:12;8.93;;;3.72;;
29184;SDS011;16233;47.964;-3.842;2022-10-17T09:52:20;9.80;;;1.50;;
29184;SDS011;16233;47.964;-3.842;2022-10-17T09:54:28;8.23;;;1.23;;
29184;SDS011;16233;47.964;-3.842;2022-10-17T09:58:58;3.47;;;1.80;;
29184;SDS011;16233;47.964;-3.842;2022-10-17T10:01:13;8.10;;;1.73;;
29184;SDS011;16233;47.964;-3.842;2022-10-17T10:03:17;4.13;;;1.30;;
29184;SDS011;16233;47.964;-3.842;2022-10-17T10:05:19;9.55;;;1.40;;
29184;SDS011;16233;47.964;-3.842;2022-10-17T10:07:20;5.40;;;1.27;;
29184;SDS011;16233;47.964;-3.842;2022-10-17T10:09:23;8.55;;;1.48;;
29184;SDS011;16233;47.964;-3.842;2022-10-17T10:13:47;7.82;;;1.58;;
29184;SDS011;16233;47.964;-3.842;2022-10-17T10:15:49;7.25;;;2.00;;
29184;SDS011;16233;47.964;-3.842;2022-10-17T10:17:50;5.25;;;1.38;;
29184;SDS011;16233;47.964;-3.842;2022-10-17T10:19:51;6.82;;;1.77;;
29184;SDS011;16233;47.964;-3.842;2022-10-17T10:21:53;5.00;;;1.65;;
29184;SDS011;16233;47.964;-3.842;2022-10-17T10:24:02;7.13;;;2.35;;
29184;SDS011;16233;47.964;-3.842;2022-10-17T10:26:11;6.90;;;1.52;;
29184;SDS011;16233;47.964;-3.842;2022-10-17T10:28:25;5.05;;;1.80;;
29184;SDS011;16233;47.964;-3.842;2022-10-17T10:30:29;4.70;;;1.40;;
29184;SDS011;16233;47.964;-3.842;2022-10-17T10:32:30;6.13;;;1.85;;
29184;SDS011;16233;47.964;-3.842;2022-10-17T10:34:34;1.65;;;1.38;;
29184;SDS011;16233;47.964;-3.842;2022-10-17T10:36:41;4.20;;;1.40;;
29184;SDS011;16233;47.964;-3.842;2022-10-17T10:38:52;3.42;;;1.38;;
29184;SDS011;16233;47.964;-3.842;2022-10-17T10:40:56;2.85;;;1.08;;
29184;SDS011;16233;47.964;-3.842;2022-10-17T10:43:03;4.13;;;1.45;;
29184;SDS011;16233;47.964;-3.842;2022-10-17T10:45:14;4.38;;;1.40;;
29184;SDS011;16233;47.964;-3.842;2022-10-17T10:47:18;7.30;;;1.90;;
29184;SDS011;16233;47.964;-3.842;2022-10-17T10:49:28;6.03;;;1.27;;
29184;SDS011;16233;47.964;-3.842;2022-10-17T10:51:30;4.65;;;1.30;;
29184;SDS011;16233;47.964;-3.842;2022-10-17T10:53:40;3.17;;;2.33;;
29184;SDS011;16233;47.964;-3.842;2022-10-17T10:55:45;2.55;;;1.50;;
29184;SDS011;16233;47.964;-3.842;2022-10-17T10:57:50;3.40;;;1.17;;
29184;SDS011;16233;47.964;-3.842;2022-10-17T10:59:58;5.03;;;1.30;;
29184;SDS011;16233;47.964;-3.842;2022-10-17T11:02:09;11.27;;;2.08;;
29184;SDS011;16233;47.964;-3.842;2022-10-17T11:04:19;5.18;;;1.77;;
29184;SDS011;16233;47.964;-3.842;2022-10-17T11:06:26;9.05;;;1.58;;
29184;SDS011;16233;47.964;-3.842;2022-10-17T11:08:32;10.32;;;1.95;;
29184;SDS011;16233;47.964;-3.842;2022-10-17T11:10:46;2.15;;;1.35;;
29184;SDS011;16233;47.964;-3.842;2022-10-17T11:12:56;4.97;;;1.50;;
29184;SDS011;16233;47.964;-3.842;2022-10-17T11:15:06;4.05;;;1.70;;
29184;SDS011;16233;47.964;-3.842;2022-10-17T11:17:18;6.07;;;1.70;;
29184;SDS011;16233;47.964;-3.842;2022-10-17T11:19:30;6.82;;;1.70;;
29184;SDS011;16233;47.964;-3.842;2022-10-17T11:21:37;6.07;;;2.20;;
29184;SDS011;16233;47.964;-3.842;2022-10-17T11:23:46;7.70;;;1.55;;
29184;SDS011;16233;47.964;-3.842;2022-10-17T11:25:51;8.25;;;1.55;;
29184;SDS011;16233;47.964;-3.842;2022-10-17T11:27:53;3.72;;;1.52;;
29184;SDS011;16233;47.964;-3.842;2022-10-17T11:29:54;1.95;;;1.23;;
29184;SDS011;16233;47.964;-3.842;2022-10-17T11:31:56;3.53;;;1.48;;
29184;SDS011;16233;47.964;-3.842;2022-10-17T11:34:03;4.88;;;1.48;;
29184;SDS011;16233;47.964;-3.842;2022-10-17T11:36:09;1.98;;;1.20;;
29184;SDS011;16233;47.964;-3.842;2022-10-17T11:38:13;5.88;;;1.52;;
29184;SDS011;16233;47.964;-3.842;2022-10-17T11:40:18;1.65;;;1.23;;
29184;SDS011;16233;47.964;-3.842;2022-10-17T11:42:25;5.00;;;1.45;;
29184;SDS011;16233;47.964;-3.842;2022-10-17T11:44:30;2.60;;;1.63;;
29184;SDS011;16233;47.964;-3.842;2022-10-17T11:46:34;3.35;;;1.08;;
29184;SDS011;16233;47.964;-3.842;2022-10-17T11:48:38;4.57;;;1.25;;
29184;SDS011;16233;47.964;-3.842;2022-10-17T11:50:44;4.07;;;1.20;;
29184;SDS011;16233;47.964;-3.842;2022-10-17T11:52:50;3.08;;;1.20;;
29184;SDS011;16233;47.964;-3.842;2022-10-17T11:54:56;2.20;;;1.20;;
29184;SDS011;16233;47.964;-3.842;2022-10-17T11:57:05;4.90;;;1.30;;
29184;SDS011;16233;47.964;-3.842;2022-10-17T11:59:31;6.70;;;1.98;;
29184;SDS011;16233;47.964;-3.842;2022-10-17T12:01:50;2.65;;;1.10;;
29184;SDS011;16233;47.964;-3.842;2022-10-17T12:04:00;3.70;;;1.13;;
29184;SDS011;16233;47.964;-3.842;2022-10-17T12:06:14;3.55;;;2.25;;
29184;SDS011;16233;47.964;-3.842;2022-10-17T12:08:22;1.17;;;0.90;;
29184;SDS011;16233;47.964;-3.842;2022-10-17T12:10:30;2.28;;;1.48;;
29184;SDS011;16233;47.964;-3.842;2022-10-17T12:12:38;1.23;;;1.05;;
29184;SDS011;16233;47.964;-3.842;2022-10-17T12:14:39;2.22;;;1.27;;
29184;SDS011;16233;47.964;-3.842;2022-10-17T12:16:43;3.10;;;1.20;;
29184;SDS011;16233;47.964;-3.842;2022-10-17T12:18:44;6.97;;;2.00;;